Flight Track Log - Related Links

Times and Time Zones

All times are in EST time to prevent confusion due to time zone crossing. See the DLH2991 flight status page for this flight to view local times or setup timezone preferences in your user account.

Time Position Orientation Groundspeed Altitude Reporting Facility
EST Latitude Longitude Course Direction KTS MPH feet Rate Location/Type
Fri 09:31:00 AM 55.7126 36.6063 269° West  Level Estimated
Fri 09:32:00 AM 55.7096 36.4197 268° West  Level Estimated
Fri 09:33:00 AM 55.7062 36.2332 268° West  Level Estimated
Fri 09:34:00 AM 55.7026 36.0467 268° West  Level Estimated
Fri 09:35:00 AM 55.6987 35.8602 268° West  Level Estimated
Fri 09:36:00 AM 55.6945 35.6738 268° West  Level Estimated
Fri 09:37:00 AM 55.6901 35.4874 268° West  Level Estimated
Fri 09:38:00 AM 55.6853 35.3011 267° West  Level Estimated
Fri 09:39:00 AM 55.6803 35.1148 267° West  Level Estimated
Fri 09:40:00 AM 55.6750 34.9286 267° West  Level Estimated
Fri 09:41:00 AM 55.6694 34.7424 267° West  Level Estimated
Fri 09:42:00 AM 55.6635 34.5562 267° West  Level Estimated
Fri 09:43:00 AM 55.6573 34.3702 267° West  Level Estimated
Fri 09:44:00 AM 55.6509 34.1841 267° West  Level Estimated
Fri 09:45:00 AM 55.6442 33.9982 266° West  Level Estimated
Fri 09:46:00 AM 55.6372 33.8123 266° West  Level Estimated
Fri 09:47:00 AM 55.6299 33.6265 266° West  Level Estimated
Fri 09:48:00 AM 55.6223 33.4407 266° West  Level Estimated
Fri 09:49:00 AM 55.6145 33.2550 266° West  Level Estimated
Fri 09:50:00 AM 55.6064 33.0694 266° West  Level Estimated
Fri 09:51:00 AM 55.5980 32.8839 265° West  Level Estimated
Fri 09:52:00 AM 55.5893 32.6984 265° West  Level Estimated
Fri 09:53:00 AM 55.5803 32.5131 265° West  Level Estimated
Fri 09:54:00 AM 55.5711 32.3278 265° West  Level Estimated
Fri 09:55:00 AM 55.5616 32.1426 265° West  Level Estimated
Fri 09:56:00 AM 55.5518 31.9575 265° West  Level Estimated
Fri 09:56:05 AM 55.6908 31.8523 265° West 406 467 36,000  Level FlightAware ADS-B
Fri 09:57:09 AM 55.6670 31.6450 259° West 409 471 35,900  Descending FlightAware ADS-B
Fri 09:58:10 AM 55.6433 31.4432 258° West 413 475 36,000 50 Climbing FlightAware ADS-B
Fri 09:59:10 AM 55.6230 31.2730 258° West 416 479 36,000  Level FlightAware ADS-B
Fri 10:00:11 AM 55.5948 31.0414 258° West 416 479 36,000  Level FlightAware ADS-B
Fri 10:01:11 AM 55.5675 30.8465 256° West 418 481 36,000  Level FlightAware ADS-B
Fri 10:02:11 AM 55.5366 30.6474 255° West 414 476 36,000  Level FlightAware ADS-B
Fri 10:03:10 AM 55.5076 30.4635 255° West 410 472 36,000  Level FlightAware ADS-B
Fri 10:04:10 AM 55.4794 30.2806 255° West 408 470 36,000  Level FlightAware ADS-B
Fri 10:05:11 AM 55.4493 30.0831 255° West 408 470 36,000  Level FlightAware ADS-B
Fri 10:06:11 AM 55.4174 29.8776 255° West 407 468 36,000  Level FlightAware ADS-B
Fri 10:08:11 AM 55.3575 29.4965 263° West 410 472 36,000  Level FlightAware ADS-B
Fri 10:09:11 AM 55.3267 29.3048 254° West 413 475 36,000  Level FlightAware ADS-B
Fri 10:10:11 AM 55.2952 29.1102 254° West 415 478 36,000  Level FlightAware ADS-B
Fri 10:11:11 AM 55.2643 28.9214 254° West 413 475 36,000  Level FlightAware ADS-B
Fri 10:12:11 AM 55.2326 28.7302 254° West 411 473 36,000  Level FlightAware ADS-B
Fri 10:13:11 AM 55.2007 28.5397 254° West 411 473 36,000  Level FlightAware ADS-B
Fri 10:14:11 AM 55.1684 28.3491 254° West 410 472 36,000  Level FlightAware ADS-B
Fri 10:15:12 AM 55.1351 28.1545 253° West 408 470 36,000  Level FlightAware ADS-B
Fri 10:16:11 AM 55.1026 27.9670 253° West 403 464 36,000  Level FlightAware ADS-B
Fri 10:17:11 AM 55.0719 27.7922 253° West 401 461 36,000  Level FlightAware ADS-B
Fri 10:18:11 AM 55.0379 27.5975 253° West 402 463 36,000  Level FlightAware ADS-B
Fri 10:19:11 AM 55.0051 27.4122 253° West 406 467 36,000  Level FlightAware ADS-B
Fri 10:20:11 AM 54.9710 27.2230 253° West 409 471 36,000  Level FlightAware ADS-B
Fri 10:21:11 AM 54.9374 27.0374 253° West 410 472 36,000  Level FlightAware ADS-B
Fri 10:22:11 AM 54.9028 26.8486 252° West 409 471 36,000  Level FlightAware ADS-B
Fri 10:23:10 AM 54.8692 26.6678 252° West 407 468 36,000  Level FlightAware ADS-B
Fri 10:23:51 AM 54.8456 26.5419 252° West 407 468 36,000  Level FlightAware ADS-B (EPSY / SZY)
Fri 10:24:47 AM 54.8133 26.3700 252° West 407 468 36,000  Level FlightAware ADS-B (EPSY / SZY)
Fri 10:25:28 AM 54.7903 26.2488 252° West 408 470 36,000  Level FlightAware ADS-B (EPSY / SZY)
Fri 10:26:00 AM 54.7717 26.1510 252° West 408 470 36,000  Level FlightAware ADS-B (EPSY / SZY)
Fri 10:26:44 AM 54.7451 26.0126 252° West 407 468 36,000  Level FlightAware ADS-B (EPSY / SZY)
Fri 10:27:23 AM 54.7219 25.8928 252° West 406 467 36,000  Level FlightAware ADS-B (EPSY / SZY)
Fri 10:28:02 AM 54.6980 25.7692 251° West 405 466 36,000  Level FlightAware ADS-B (EPSY / SZY)
Fri 10:28:43 AM 54.6736 25.6471 251° West 406 467 36,000  Level FlightAware ADS-B (EPSY / SZY)
Fri 10:29:26 AM 54.6461 25.5118 251° West 405 466 36,000  Level FlightAware ADS-B (EPSY / SZY)
Fri 10:30:07 AM 54.6226 25.3969 251° West 405 466 36,000  Level FlightAware ADS-B (EPSY / SZY)
Fri 10:30:53 AM 54.5945 25.2598 251° West 407 468 36,000  Level FlightAware ADS-B (EPSY / SZY)
Fri 10:31:40 AM 54.5625 25.1058 250° West 410 472 36,000  Level FlightAware ADS-B
Fri 10:32:10 AM 54.5432 25.0127 250° West 410 472 36,000  Level FlightAware ADS-B (EPSY / SZY)
Fri 10:32:40 AM 54.5234 24.9181 250° West 410 472 36,000  Level FlightAware ADS-B
Fri 10:33:11 AM 54.5039 24.8255 250° West 409 471 36,000  Level FlightAware ADS-B
Fri 10:33:48 AM 54.4824 24.7240 250° West 407 468 36,000  Level FlightAware ADS-B (EPSY / SZY)
Fri 10:34:19 AM 54.4616 24.6253 250° West 407 468 36,000  Level FlightAware ADS-B (EPSY / SZY)
Fri 10:34:59 AM 54.4348 24.4999 250° West 405 466 36,000  Level FlightAware ADS-B (EPSY / SZY)
Fri 10:35:31 AM 54.4134 24.3998 250° West 403 464 36,000  Level FlightAware ADS-B
Fri 10:36:11 AM 54.3877 24.2817 250° West 402 463 36,000  Level FlightAware ADS-B
Fri 10:36:41 AM 54.3691 24.1956 250° West 401 461 36,000  Level FlightAware ADS-B (EPSY / SZY)
Fri 10:37:11 AM 54.3501 24.1084 250° West 401 461 36,000  Level FlightAware ADS-B
Fri 10:37:51 AM 54.3229 23.9840 249° West 403 464 36,000  Level FlightAware ADS-B
Fri 10:38:31 AM 54.2971 23.8669 249° West 405 466 36,000  Level FlightAware ADS-B
Fri 10:39:10 AM 54.2720 23.7535 249° West 407 468 36,000  Level FlightAware ADS-B (EPSY / SZY)
Fri 10:39:51 AM 54.2446 23.6300 249° West 407 468 36,000 74 Level FlightAware ADS-B (EPSY / SZY)
Fri 10:40:31 AM 54.2167 23.5057 249° West 403 464 36,100  Climbing FlightAware ADS-B
Fri 10:41:11 AM 54.1905 23.3897 249° West 399 459 36,000 -85 Descending FlightAware ADS-B
Fri 10:41:42 AM 54.1692 23.3006 248° West 398 458 36,000  Level FlightAware ADS-B (EPSY / SZY)
Fri 10:42:30 AM 54.1494 23.1599 257° West 394 453 36,000  Level FlightAware ADS-B
Fri 10:43:11 AM 54.1364 23.0338 260° West 394 453 36,000  Level FlightAware ADS-B
Fri 10:43:54 AM 54.1230 22.9046 260° West 394 453 36,000  Level FlightAware ADS-B (EPSY / SZY)
Fri 10:44:33 AM 54.1214 22.8879 260° West 394 453 36,000 77 Level FlightAware ADS-B
Fri 10:45:12 AM 54.0980 22.6637 260° West 390 449 36,100  Climbing FlightAware ADS-B
Fri 10:45:51 AM 54.0859 22.5491 260° West 388 447 36,000 -75 Descending FlightAware ADS-B (EPSY / SZY)
Fri 10:46:32 AM 54.0727 22.4263 260° West 385 443 36,000  Level FlightAware ADS-B (EPSY / SZY)
Fri 10:47:11 AM 54.0600 22.3076 260° West 386 444 36,000  Level FlightAware ADS-B
Fri 10:47:52 AM 54.0466 22.1853 260° West 390 449 36,000  Level FlightAware ADS-B (EPSY / SZY)
Fri 10:48:12 AM 54.0516 22.2315 80° East 390 449 36,000  Level FlightAware ADS-B
Fri 10:48:52 AM 54.0270 22.0072 259° West 391 450 36,000  Level FlightAware ADS-B (EPSY / SZY)
Fri 10:49:42 AM 54.0102 21.8574 259° West 392 451 36,000  Level FlightAware ADS-B (EPSY / SZY)
Fri 10:50:22 AM 53.9963 21.7339 259° West 391 450 36,000  Level FlightAware ADS-B (EPSY / SZY)
Fri 10:51:00 AM 53.9833 21.6208 259° West 390 449 36,000  Level FlightAware ADS-B (EPSY / SZY)
Fri 10:51:43 AM 53.9687 21.4934 259° West 391 450 36,000  Level FlightAware ADS-B (EPSY / SZY)
Fri 10:52:13 AM 53.9575 21.3970 259° West 391 450 36,000  Level FlightAware ADS-B
Fri 10:52:44 AM 53.9474 21.3092 259° West 393 452 36,000  Level FlightAware ADS-B (EPSY / SZY)
Fri 10:53:24 AM 53.9330 21.1875 259° West 396 456 36,000  Level FlightAware ADS-B (EPSY / SZY)
Fri 10:54:05 AM 53.9187 21.0672 259° West 398 458 36,000  Level FlightAware ADS-B (EPSY / SZY)
Fri 10:54:40 AM 53.9054 20.9567 259° West 400 460 36,000  Level FlightAware ADS-B (EPSY / SZY)
Fri 10:55:12 AM 53.9113 21.0062 79° East 401 461 36,000  Level FlightAware ADS-B
Fri 10:55:51 AM 53.8790 20.7390 259° West 402 463 36,000  Level FlightAware ADS-B
Fri 10:56:25 AM 53.8666 20.6379 258° West 403 464 36,000  Level FlightAware ADS-B (EPSY / SZY)
Fri 10:56:57 AM 53.8533 20.5308 258° West 405 466 36,000  Level FlightAware ADS-B
Fri 10:57:31 AM 53.8425 20.4445 258° West 406 467 36,000  Level FlightAware ADS-B
Fri 10:58:06 AM 53.8273 20.3227 258° West 405 466 36,000  Level FlightAware ADS-B (EPSY / SZY)
Fri 10:58:36 AM 53.8149 20.2247 258° West 404 465 36,000  Level FlightAware ADS-B
Fri 10:59:07 AM 53.8032 20.1333 258° West 402 463 36,000  Level FlightAware ADS-B (EPSY / SZY)
Fri 10:59:44 AM 53.7887 20.0205 258° West 402 463 36,000  Level FlightAware ADS-B (EPSY / SZY)
Fri 11:00:15 AM 53.7760 19.9224 258° West 401 461 36,000  Level FlightAware ADS-B
Fri 11:00:49 AM 53.7636 19.8268 258° West 401 461 36,000  Level FlightAware ADS-B (EPSY / SZY)
Fri 11:01:26 AM 53.7488 19.7142 258° West 401 461 36,000  Level FlightAware ADS-B
Fri 11:01:37 AM 53.7432 19.6719 257° West 398 458 36,000  Level FlightAware ADS-B
Fri 11:01:50 AM 53.7381 19.6329 257° West 398 458 36,000  Level FlightAware ADS-B
Fri 11:02:21 AM 53.7261 19.5425 257° West 399 459 36,000  Level FlightAware ADS-B
Fri 11:02:57 AM 53.7111 19.4308 257° West 398 458 36,000  Level FlightAware ADS-B
Fri 11:03:30 AM 53.6977 19.3309 257° West 401 461 36,000  Level FlightAware ADS-B (EPSY / SZY)
Fri 11:04:08 AM 53.6833 19.2249 257° West 402 463 36,000  Level FlightAware ADS-B
Fri 11:04:45 AM 53.6664 19.1017 257° West 404 465 36,000  Level FlightAware ADS-B
Fri 11:05:18 AM 53.6526 19.0011 257° West 408 470 36,000 73 Level FlightAware ADS-B
Fri 11:06:07 AM 53.6320 18.8521 257° West 409 471 36,100 71 Climbing FlightAware ADS-B (EPSY / SZY)
Fri 11:06:42 AM 53.6208 18.7728 257° West 408 470 36,100 -80 Level FlightAware ADS-B
Fri 11:07:22 AM 53.5998 18.6230 257° West 405 466 36,000  Descending FlightAware ADS-B (EPSY / SZY)
Fri 11:08:01 AM 53.5832 18.5066 257° West 399 459 36,100 98 Climbing FlightAware ADS-B (EPSY / SZY)
Fri 11:08:23 AM 53.5728 18.4339 257° West 393 452 36,100 655 Level FlightAware ADS-B
Fri 11:08:56 AM 53.5623 18.3620 256° West 384 442 36,700 973 Climbing FlightAware ADS-B
Fri 11:09:37 AM 53.5424 18.2247 256° West 383 441 37,300 730 Climbing FlightAware ADS-B (EPSY / SZY)
Fri 11:10:10 AM 53.5281 18.1274 256° West 384 442 37,600 529 Climbing FlightAware ADS-B
Fri 11:10:45 AM 53.5131 18.0256 256° West 392 451 37,900 312 Climbing FlightAware ADS-B (EPSY / SZY)
Fri 11:11:27 AM 53.4946 17.8992 256° West 399 459 38,000 83 Climbing FlightAware ADS-B (EPSY / SZY)
Fri 11:11:57 AM 53.4819 17.8136 256° West 401 461 38,000  Level FlightAware ADS-B (EPSY / SZY)
Fri 11:12:30 AM 53.4672 17.7162 256° West 403 464 38,000  Level FlightAware ADS-B
Fri 11:13:13 AM 53.4473 17.5839 256° West 404 465 38,000  Level FlightAware ADS-B (EPSY / SZY)
Fri 11:13:53 AM 53.4287 17.4611 256° West 404 465 38,000  Level FlightAware ADS-B (EPSY / SZY)
Fri 11:14:23 AM 53.4177 17.3896 256° West 403 464 38,000  Level FlightAware ADS-B
Fri 11:15:01 AM 53.4017 17.2854 256° West 402 463 38,000  Level FlightAware ADS-B (EPSY / SZY)
Fri 11:15:38 AM 53.3897 17.2084 255° West 400 460 38,000  Level FlightAware ADS-B (EPSY / SZY)
Fri 11:16:08 AM 53.3657 17.0538 255° West 399 459 38,000  Level FlightAware ADS-B
Fri 11:16:54 AM 53.3445 16.9196 255° West 399 459 38,000  Level FlightAware ADS-B
Fri 11:17:35 AM 53.3244 16.7924 255° West 399 459 38,000  Level FlightAware ADS-B
Fri 11:18:14 AM 53.3062 16.6780 255° West 401 461 38,000  Level FlightAware ADS-B
Fri 11:18:55 AM 53.2904 16.5540 258° West 403 464 38,000  Level FlightAware ADS-B
Fri 11:19:33 AM 53.2755 16.4390 258° West 403 464 38,000  Level FlightAware ADS-B (KMTJ)
Fri 11:20:13 AM 53.2600 16.3204 258° West 402 463 38,000  Level FlightAware ADS-B (KMTJ)
Fri 11:20:49 AM 53.2478 16.2277 258° West 403 464 38,000  Level FlightAware ADS-B (KMTJ)
Fri 11:21:34 AM 53.2275 16.0742 258° West 402 463 38,000  Level FlightAware ADS-B (KMTJ)
Fri 11:22:15 AM 53.2133 15.9678 257° West 401 461 38,000  Level FlightAware ADS-B (KMTJ)
Fri 11:22:53 AM 53.1978 15.8530 257° West 400 460 38,000  Level FlightAware ADS-B (KMTJ)
Fri 11:23:31 AM 53.1813 15.7310 257° West 399 459 38,000  Level FlightAware ADS-B (ETSF / FEL)
Fri 11:24:10 AM 53.1665 15.6218 257° West 399 459 38,000  Level FlightAware ADS-B (ETSF / FEL)
Fri 11:24:50 AM 53.1549 15.5373 257° West 399 459 38,000  Level FlightAware ADS-B (KMTJ)
Fri 11:25:25 AM 53.1335 15.3845 257° West 399 459 38,000  Level FlightAware ADS-B (ETSF / FEL)
Fri 11:26:01 AM 53.1188 15.2781 257° West 399 459 38,000  Level FlightAware ADS-B
Fri 11:26:32 AM 53.1088 15.2072 257° West 399 459 38,000  Level FlightAware ADS-B (KMTJ)
Fri 11:27:08 AM 53.0900 15.0736 257° West 400 460 38,000  Level FlightAware ADS-B
Fri 11:27:42 AM 53.0763 14.9772 257° West 403 464 38,000  Level FlightAware ADS-B (ETSF / FEL)
Fri 11:28:13 AM 53.0636 14.8885 257° West 405 466 38,000  Level FlightAware ADS-B (ETSF / FEL)
Fri 11:28:53 AM 53.0451 14.7594 257° West 408 470 38,000  Level FlightAware ADS-B (ETSF / FEL)
Fri 11:29:34 AM 53.0273 14.6385 256° West 408 470 38,000  Level FlightAware ADS-B (ETSF / FEL)
Fri 11:30:15 AM 53.0089 14.5126 256° West 408 470 38,000  Level FlightAware ADS-B (ETSF / FEL)
Fri 11:30:52 AM 52.9927 14.4037 256° West 407 468 38,000  Level FlightAware ADS-B (KMTJ)
Fri 11:31:35 AM 52.9736 14.2751 256° West 407 468 38,000  Level FlightAware ADS-B (KMTJ)
Fri 11:32:06 AM 52.9603 14.1861 256° West 407 468 38,000  Level FlightAware ADS-B
Fri 11:32:47 AM 52.9405 14.0558 256° West 407 468 38,000  Level FlightAware ADS-B (ETSF / FEL)
Fri 11:33:29 AM 52.9203 13.9232 256° West 406 467 38,000  Level FlightAware ADS-B (ETSF / FEL)
Fri 11:34:09 AM 52.9025 13.8062 256° West 404 465 38,000  Level FlightAware ADS-B (ETSF / FEL)
Fri 11:34:50 AM 52.8842 13.6884 256° West 404 465 38,000  Level FlightAware ADS-B (ETSF / FEL)
Fri 11:35:13 AM 52.8735 13.6201 255° West 404 465 38,000  Level FlightAware ADS-B
Fri 11:35:55 AM 52.8532 13.4905 256° West 403 464 38,000  Level FlightAware ADS-B
Fri 11:36:35 AM 52.8378 13.3920 256° West 402 463 38,000  Level FlightAware ADS-B (KMTJ)
Fri 11:37:13 AM 52.8165 13.2579 255° West 404 465 38,000  Level FlightAware ADS-B (ETSF / FEL)
Fri 11:37:53 AM 52.7976 13.1397 255° West 406 467 38,000  Level FlightAware ADS-B (ETSF / FEL)
Fri 11:38:33 AM 52.7779 13.0171 255° West 407 468 38,000  Level FlightAware ADS-B
Fri 11:39:05 AM 52.7643 12.9325 255° West 408 470 38,000  Level FlightAware ADS-B (ETSF / FEL)
Fri 11:39:55 AM 52.7421 12.7969 255° West 410 472 38,000  Level FlightAware ADS-B
Fri 11:40:38 AM 52.7165 12.6407 255° West 412 474 38,000  Level FlightAware ADS-B
Fri 11:41:17 AM 52.6998 12.5406 255° West 414 476 38,000  Level FlightAware ADS-B
Fri 11:41:58 AM 52.6793 12.4165 255° West 416 479 38,000  Level FlightAware ADS-B
Fri 11:42:37 AM 52.6569 12.2835 255° West 417 480 38,000  Level FlightAware ADS-B
Fri 11:43:16 AM 52.6361 12.1606 254° West 418 481 38,000 75 Level FlightAware ADS-B
Fri 11:43:57 AM 52.6148 12.0358 254° West 417 480 38,100  Climbing FlightAware ADS-B
Fri 11:44:37 AM 52.5941 11.9153 254° West 416 479 38,000 -76 Descending FlightAware ADS-B
Fri 11:45:16 AM 52.5738 11.7986 254° West 415 478 38,000  Level FlightAware ADS-B
Fri 11:45:51 AM 52.5555 11.6935 254° West 413 475 38,000  Level FlightAware ADS-B (ETSF / FEL)
Fri 11:46:33 AM 52.5336 11.5684 254° West 416 479 38,000  Level FlightAware ADS-B (ETSF / FEL)
Fri 11:47:18 AM 52.5090 11.4278 254° West 417 480 38,000  Level FlightAware ADS-B
Fri 11:47:58 AM 52.4877 11.3077 254° West 414 476 38,000  Level FlightAware ADS-B
Fri 11:48:35 AM 52.4687 11.2016 254° West 410 472 38,000  Level FlightAware ADS-B (ETSF / FEL)
Fri 11:49:13 AM 52.4479 11.0859 254° West 407 468 38,000  Level FlightAware ADS-B (ETSF / FEL)
Fri 11:49:55 AM 52.4253 10.9615 253° West 402 463 38,000  Level FlightAware ADS-B (ETSF / FEL)
Fri 11:50:16 AM 52.4168 10.9150 253° West 404 465 38,000  Level FlightAware ADS-B
Fri 11:50:49 AM 52.3991 10.8175 253° West 401 461 38,000  Level FlightAware ADS-B
Fri 11:51:23 AM 52.3787 10.7062 253° West 399 459 38,000  Level FlightAware ADS-B (ETSF / FEL)
Fri 11:51:59 AM 52.3589 10.5995 253° West 402 463 38,000  Level FlightAware ADS-B
Fri 11:52:39 AM 52.3385 10.4894 253° West 404 465 38,000  Level FlightAware ADS-B
Fri 11:53:18 AM 52.3163 10.3702 253° West 407 468 38,000  Level FlightAware ADS-B
Fri 11:53:54 AM 52.2965 10.2654 253° West 407 468 38,000  Level FlightAware ADS-B (ETSF / FEL)
Fri 11:54:32 AM 52.2761 10.1569 253° West 407 468 38,000 -385 Level FlightAware ADS-B (ETSF / FEL)
Fri 11:55:12 AM 52.2531 10.0363 253° West 407 468 37,500 -1,229 Descending FlightAware ADS-B (ETSF / FEL)
Fri 11:55:55 AM 52.2280 9.9052 253° West 416 479 36,300 -1,425 Descending FlightAware ADS-B
Fri 11:56:32 AM 52.2104 9.8143 253° West 417 480 35,600 -1,324 Descending FlightAware ADS-B
Fri 11:57:03 AM 52.2032 9.7765 253° West 412 474 34,800 -1,517 Descending FlightAware ADS-B
Fri 11:57:59 AM 52.1597 9.5529 253° West 420 483 33,400 -1,655 Descending FlightAware ADS-B
Fri 11:58:30 AM 52.1389 9.4471 252° West 417 480 32,400 -1,839 Descending FlightAware ADS-B (ETSF / FEL)
Fri 11:59:01 AM 52.1228 9.3659 252° West 415 478 31,500 -1,890 Descending FlightAware ADS-B
Fri 11:59:43 AM 52.0970 9.2363 252° West 405 466 30,100 -2,000 Descending FlightAware ADS-B
Fri 12:00:16 PM 52.0781 9.1414 252° West 396 456 29,000 -1,920 Descending FlightAware ADS-B (ETSF / FEL)
Fri 12:00:58 PM 52.0581 9.0417 252° West 392 451 27,700 -1,976 Descending FlightAware ADS-B
Fri 12:01:38 PM 52.0321 8.9126 252° West 386 444 26,300 -1,600 Descending FlightAware ADS-B
Fri 12:02:13 PM 52.0129 8.8176 252° West 382 440 25,700 -960 Descending FlightAware ADS-B
Fri 12:02:53 PM 51.9934 8.7219 252° West 381 438 25,100 -1,037 Descending FlightAware ADS-B
Fri 12:03:34 PM 51.9690 8.5970 252° West 376 433 24,300 -1,143 Descending FlightAware ADS-B
Fri 12:04:17 PM 51.9453 8.4818 252° West 371 427 23,500 -1,286 Descending FlightAware ADS-B
Fri 12:04:58 PM 51.9118 8.3942 238° Southwest 363 418 22,500 -1,385 Descending FlightAware ADS-B
Fri 12:05:35 PM 51.8793 8.3130 237° Southwest 355 409 21,700 -1,538 Descending FlightAware ADS-B
Fri 12:06:16 PM 51.8408 8.2135 238° Southwest 354 407 20,500 -1,571 Descending FlightAware ADS-B
Fri 12:06:59 PM 51.8184 8.1124 250° West 345 397 19,500 -1,412 Descending FlightAware ADS-B
Fri 12:07:41 PM 51.8057 8.0142 258° West 332 382 18,500 -1,600 Descending FlightAware ADS-B
Fri 12:07:44 PM 51.8049 8.0075 259° West 356 410 18,300 -1,636 Descending FlightAware ADS-B (EDKL)
Fri 12:08:03 PM 51.7977 7.9531 258° West 324 373 17,900 -1,345 Descending FlightAware ADS-B
Fri 12:08:42 PM 51.7872 7.8721 258° West 322 371 17,000 -1,575 Descending FlightAware ADS-B
Fri 12:09:23 PM 51.7737 7.7665 258° West 317 365 15,800 -1,425 Descending FlightAware ADS-B
Fri 12:10:02 PM 51.7636 7.6890 258° West 313 360 15,100 -1,077 Descending FlightAware ADS-B
Fri 12:10:41 PM 51.7503 7.5878 258° West 307 353 14,400 -1,034 Descending FlightAware ADS-B
Fri 12:11:00 PM 51.7459 7.5545 258° West 307 353 14,100 -1,017 Descending FlightAware ADS-B
Fri 12:11:40 PM 51.7331 7.4570 258° West 303 349 13,400 -1,000 Descending FlightAware ADS-B
Fri 12:12:30 PM 51.7203 7.3597 258° West 283 326 12,600 -1,000 Descending FlightAware ADS-B
Fri 12:13:16 PM 51.7070 7.2611 258° West 262 302 11,800 -977 Descending FlightAware ADS-B
Fri 12:13:56 PM 51.6980 7.1945 258° West 249 287 11,200 -1,050 Descending FlightAware ADS-B
Fri 12:14:36 PM 51.6840 7.1239 252° West 229 264 10,400 -1,059 Descending FlightAware ADS-B
Fri 12:15:21 PM 51.6548 7.0599 234° Southwest 216 249 9,700 -957 Descending FlightAware ADS-B
Fri 12:15:45 PM 51.6438 7.0367 233° Southwest 213 245 9,300 -977 Descending FlightAware ADS-B
Fri 12:16:04 PM 51.6317 7.0243 212° Southwest 216 249 9,000 -938 Descending FlightAware ADS-B
Fri 12:16:17 PM 51.6171 7.0259 176° South 222 255 8,800 -1,200 Descending FlightAware ADS-B
Fri 12:16:44 PM 51.5937 7.0524 145° Southeast 224 258 8,200 -1,347 Descending FlightAware ADS-B
Fri 12:17:06 PM 51.5704 7.0703 154° Southeast 221 254 7,700 -1,364 Descending FlightAware ADS-B
Fri 12:17:28 PM 51.5479 7.0864 156° South 218 251 7,200 -1,286 Descending FlightAware ADS-B
Fri 12:17:48 PM 51.5357 7.0951 156° South 214 246 6,800 -1,171 Descending FlightAware ADS-B
Fri 12:18:09 PM 51.5138 7.1106 156° South 211 243 6,400 -1,463 Descending FlightAware ADS-B
Fri 12:18:29 PM 51.4910 7.1187 168° South 204 235 5,800 -1,286 Descending FlightAware ADS-B
Fri 12:18:51 PM 51.4747 7.1096 199° South 201 231 5,500 -1,021 Descending FlightAware ADS-B
Fri 12:19:16 PM 51.4579 7.0979 203° Southwest 199 229 5,000 -947 Descending FlightAware ADS-B
Fri 12:19:48 PM 51.4372 7.0700 220° Southwest 190 219 4,600 -706 Descending FlightAware ADS-B
Fri 12:20:07 PM 51.4232 7.0432 230° Southwest 173 199 4,400 -632 Descending FlightAware ADS-B
Fri 12:22:00 PM 51.2961 6.7805 232° Southwest  Level Estimated
Fri 12:23:00 PM 51.2895 6.7668 232° Southwest  Level Estimated
Fri 12:24:00 PM 51.2895 6.7668 314° West  Level Estimated
Fri 12:25:00 PM 51.2895 6.7668 314° West  Level Estimated
Fri 12:26:00 PM 51.2895 6.7668 314° West  Level Estimated
Fri 12:27:00 PM 51.2895 6.7668 314° West  Level Estimated
Fri 12:28:00 PM 51.2895 6.7668 314° West  Level Estimated
Fri 12:29:00 PM 51.2895 6.7668 314° West  Level Estimated

Login

Don't have an account? Register now (free) for customized features, flight alerts, and more!